Latest Weather Observations for Mareeba

IDQ60801

Issued at 12:32 pm EST Thursday 25 August 2016 (issued every 30 minutes, with the page automatically refreshed every 10 minutes)

About weather observations | Map of weather stations | Latest weather observations for QLD | Other Formats
Station Details ID: 031210 Name: MAREEBA AIRPORT Lat: -17.07 Lon: 145.43 Height: 471.93 m
Data from the previous 72 hours. | See also: Recent months at Mareeba
Date/Time
EST
Temp
°C
App
Temp
°C
Dew
Point
°C
Rel
Hum
%
Delta-T
°C
Wind Press
QNH
hPa
Press
MSL
hPa
Rain since
9am
mm
Dir  Spd
km/h
Gust
km/h
Spd
kts
Gust
kts
25/12:30pm 29.0 28.9 15.9 45 8.3 N 11 20 6 11 1012.0 - 0.0
25/12:00pm 28.8 29.4 15.7 45 8.2 NW 7 20 4 11 1012.4 1010.5 0.0
25/11:30am 28.8 29.8 16.4 47 7.9 W 6 20 3 11 1013.1 - 0.0
25/11:00am 28.2 28.5 16.1 47 7.6 NW 9 17 5 9 1013.5 - 0.0
25/10:30am 27.7 27.4 15.4 47 7.6 NNW 11 19 6 10 1013.8 - 0.0
25/10:00am 26.5 27.4 16.1 52 6.5 NNW 6 11 3 6 1014.2 - 0.0
25/09:30am 25.9 27.4 16.7 57 5.8 S 4 7 2 4 1014.4 - 0.0
25/09:00am 23.9 26.9 18.5 72 3.5 CALM 0 0 0 0 1014.5 1012.6 0.0
25/08:30am 22.3 24.3 17.9 76 2.8 ENE 4 7 2 4 1014.6 - 0.0
25/08:00am 22.0 24.8 18.0 78 2.5 CALM 0 7 0 4 1014.4 - 0.0
25/07:30am 21.1 24.0 18.3 84 1.8 CALM 0 0 0 0 1014.1 - 0.0
25/07:00am 20.4 23.3 18.3 88 1.3 CALM 0 0 0 0 1013.9 - 0.0
25/06:30am 20.0 21.1 18.0 88 1.3 SSW 9 11 5 6 1013.5 - 0.0
25/06:00am 19.9 22.5 17.5 86 1.5 CALM 0 0 0 0 1013.4 1011.4 0.0
25/05:30am 20.3 21.8 18.1 87 1.4 WSW 7 11 4 6 1012.9 - 0.0
25/05:00am 20.7 23.4 17.7 83 1.9 CALM 0 0 0 0 1012.9 - 0.0
25/04:30am 20.9 22.8 18.5 86 1.5 SSE 6 7 3 4 1012.9 - 0.0
25/04:00am 20.4 22.7 17.8 85 1.6 WSW 2 9 1 5 1012.7 - 0.0
25/03:30am 20.3 21.5 18.2 88 1.3 W 9 11 5 6 1012.6 - 0.0
25/03:00am 20.3 22.0 18.1 87 1.4 W 6 7 3 4 1012.7 1010.8 0.0
25/02:30am 20.2 22.8 17.4 84 1.7 CALM 0 0 0 0 1012.8 - 0.0
25/02:00am 20.5 23.2 17.7 84 1.8 CALM 0 0 0 0 1012.8 - 0.0
25/01:30am 20.5 22.0 17.7 84 1.8 SSW 6 9 3 5 1013.1 - 0.0
25/01:00am 20.8 23.4 17.6 82 2.0 CALM 0 0 0 0 1013.3 - 0.0
25/12:30am 21.8 24.6 18.0 79 2.4 CALM 0 0 0 0 1013.6 - 0.0
25/12:00am 21.4 24.1 17.8 80 2.3 CALM 0 6 0 3 1013.7 1011.8 0.0
 
Date/Time
EST
Temp
°C
App
Temp
°C
Dew
Point
°C
Rel
Hum
%
Delta-T
°C
Wind Press
QNH
hPa
Press
MSL
hPa
Rain since
9am
mm
Dir  Spd
km/h
Gust
km/h
Spd
kts
Gust
kts
24/11:30pm 21.5 24.3 17.9 80 2.3 CALM 0 0 0 0 1013.8 - 0.0
24/11:00pm 21.7 24.5 17.9 79 2.4 CALM 0 0 0 0 1013.9 - 0.0
24/10:30pm 22.1 25.0 18.1 78 2.5 CALM 0 7 0 4 1013.9 - 0.0
24/10:00pm 21.4 24.1 17.8 80 2.3 CALM 0 0 0 0 1013.9 - 0.0
24/09:30pm 21.9 24.7 17.9 78 2.5 CALM 0 0 0 0 1013.8 - 0.0
24/09:00pm 21.9 23.5 17.9 78 2.5 ENE 6 7 3 4 1013.8 1011.9 0.0
24/08:30pm 21.8 24.4 17.4 76 2.8 CALM 0 0 0 0 1013.6 - 0.0
24/08:00pm 22.3 24.3 17.9 76 2.8 ENE 4 9 2 5 1013.3 - 0.0
24/07:30pm 22.6 24.2 17.9 75 3.0 ENE 6 9 3 5 1012.8 - 0.0
24/07:00pm 23.1 24.6 18.0 73 3.2 NE 7 11 4 6 1012.4 - 0.0
24/06:30pm 23.8 25.0 17.3 67 4.1 NNE 7 15 4 8 1011.8 - 0.0
24/06:00pm 24.6 25.2 17.8 66 4.3 NE 11 17 6 9 1011.3 1009.3 0.0
24/05:30pm 25.6 25.4 17.5 61 5.2 NNE 15 24 8 13 1010.9 - 0.0
24/05:00pm 26.6 25.8 17.9 59 5.6 NNE 19 24 10 13 1010.3 - 0.0
24/04:30pm 27.8 27.3 17.9 54 6.4 NE 17 28 9 15 1010.2 - 0.0
24/04:00pm 28.8 27.7 17.3 49 7.4 NNE 19 30 10 16 1010.0 - 0.0
24/03:30pm 28.7 28.3 17.2 49 7.4 NE 15 26 8 14 1010.0 - 0.0
24/03:00pm 30.0 29.1 16.8 45 8.5 NNE 17 26 9 14 1009.8 1007.8 0.0
24/02:30pm 30.7 29.4 14.8 38 9.9 N 15 26 8 14 1010.1 - 0.0
24/02:00pm 30.4 30.2 13.7 36 10.2 NE 7 22 4 12 1010.6 - 0.0
24/01:30pm 29.4 28.6 14.0 39 9.4 N 11 22 6 12 1011.3 - 0.0
24/01:00pm 29.5 28.9 14.5 40 9.3 N 11 19 6 10 1011.8 - 0.0
24/12:30pm 29.1 28.5 14.5 41 9.0 N 11 17 6 9 1012.3 - 0.0
24/12:00pm 28.5 28.7 15.8 46 8.0 W 9 22 5 12 1012.9 1011.0 0.0
24/11:30am 27.1 27.3 15.8 50 7.1 WNW 9 17 5 9 1013.8 - 0.0
24/11:00am 26.4 26.7 16.0 52 6.5 N 9 15 5 8 1014.4 - 0.0
24/10:30am 25.5 26.2 15.5 54 6.2 NNW 6 17 3 9 1015.0 - 0.0
24/10:00am 25.2 26.1 16.6 59 5.4 N 7 13 4 7 1015.2 - 0.0
24/09:30am 24.1 25.0 16.6 63 4.7 N 7 15 4 8 1015.7 - 0.0
24/09:00am 23.0 24.6 16.8 68 3.9 SW 4 9 2 5 1015.7 1013.8 0.0
24/08:30am 20.7 23.1 17.9 84 1.8 W 2 9 1 5 1015.5 - 0.0
24/08:00am 18.3 20.6 16.8 91 0.9 CALM 0 0 0 0 1015.1 - 0.0
24/07:30am 17.2 19.2 16.1 93 0.7 CALM 0 0 0 0 1014.8 - 0.0
24/07:00am 16.4 18.1 15.1 92 0.8 CALM 0 0 0 0 1014.5 - 0.0
24/06:30am 16.2 17.8 14.9 92 0.8 CALM 0 0 0 0 1014.0 - 0.0
24/06:00am 16.5 18.1 15.0 91 0.9 CALM 0 0 0 0 1013.7 1011.8 0.0
24/05:30am 16.9 18.4 15.6 92 0.8 SW 2 7 1 4 1013.3 - 0.0
24/05:00am 16.9 16.7 15.8 93 0.7 SW 11 15 6 8 1012.7 - 0.0
24/04:30am 16.7 18.5 15.4 92 0.8 CALM 0 6 0 3 1012.2 - 0.0
24/04:00am 16.2 17.8 14.9 92 0.8 CALM 0 0 0 0 1012.2 - 0.0
24/03:30am 16.3 16.7 14.8 91 0.9 SE 6 7 3 4 1012.1 - 0.0
24/03:00am 16.6 16.9 15.1 91 0.9 SE 7 11 4 6 1012.2 1010.3 0.0
24/02:30am 16.7 18.5 15.6 93 0.7 CALM 0 6 0 3 1012.3 - 0.0
24/02:00am 16.3 17.9 14.8 91 0.9 CALM 0 0 0 0 1012.5 - 0.0
24/01:30am 16.3 17.7 14.5 89 1.1 CALM 0 0 0 0 1012.8 - 0.0
24/01:00am 16.9 18.5 14.9 88 1.2 CALM 0 0 0 0 1013.4 - 0.0
24/12:30am 17.9 19.8 15.7 87 1.3 CALM 0 0 0 0 1013.8 - 0.0
24/12:00am 18.7 20.8 16.3 86 1.5 CALM 0 0 0 0 1014.1 1012.2 0.0
 
Date/Time
EST
Temp
°C
App
Temp
°C
Dew
Point
°C
Rel
Hum
%
Delta-T
°C
Wind Press
QNH
hPa
Press
MSL
hPa
Rain since
9am
mm
Dir  Spd
km/h
Gust
km/h
Spd
kts
Gust
kts
23/11:30pm 19.0 21.2 16.6 86 1.5 CALM 0 0 0 0 1014.1 - 0.0
23/11:00pm 19.1 21.4 16.7 86 1.5 CALM 0 6 0 3 1014.1 - 0.0
23/10:30pm 19.0 20.9 16.6 86 1.5 E 2 6 1 3 1014.3 - 0.0
23/10:00pm 18.7 20.1 16.5 87 1.3 NE 4 9 2 5 1014.2 - 0.0
23/09:30pm 18.3 20.3 15.9 86 1.5 CALM 0 6 0 3 1014.1 - 0.0
23/09:00pm 18.7 20.7 15.9 84 1.7 CALM 0 2 0 1 1013.9 1012.0 0.0
23/08:30pm 19.1 20.4 16.1 83 1.8 ENE 4 7 2 4 1013.8 - 0.0
23/08:00pm 19.4 20.3 16.2 82 2.0 NE 6 9 3 5 1013.6 - 0.0
23/07:30pm 19.9 20.4 15.5 76 2.7 NE 7 13 4 7 1013.2 - 0.0
23/07:00pm 20.6 20.0 14.7 69 3.5 NE 11 19 6 10 1012.6 - 0.0
23/06:30pm 21.6 20.6 14.5 64 4.3 NNE 13 20 7 11 1012.1 - 0.0
23/06:00pm 23.2 22.5 13.1 53 6.0 NE 9 17 5 9 1011.6 1009.6 0.0
23/05:30pm 24.6 22.7 12.9 48 6.9 NE 15 22 8 12 1011.2 - 0.0
23/05:00pm 25.6 23.9 13.5 47 7.2 ENE 15 22 8 12 1010.6 - 0.0
23/04:30pm 26.1 24.4 13.6 46 7.5 ENE 15 22 8 12 1010.5 - 0.0
23/04:00pm 26.7 24.9 13.4 43 8.0 NE 15 26 8 14 1010.5 - 0.0
23/03:30pm 27.0 25.9 14.4 46 7.7 NE 13 24 7 13 1010.9 - 0.0
23/03:00pm 27.8 27.3 14.8 45 8.0 NE 11 20 6 11 1010.7 1008.8 0.0
23/02:30pm 26.8 25.3 14.2 46 7.7 NE 15 26 8 14 1011.0 - 0.0
23/02:00pm 26.7 25.2 14.1 46 7.7 NNE 15 24 8 13 1011.3 - 0.0
23/01:30pm 26.4 24.5 14.2 47 7.4 NNE 17 28 9 15 1011.7 - 0.0
23/01:00pm 26.7 24.9 14.5 47 7.5 NNE 17 28 9 15 1012.2 - 0.0
23/12:30pm 26.8 25.7 14.2 46 7.7 N 13 30 7 16 1012.6 - 0.0
23/12:00pm 25.9 24.5 14.4 49 7.0 NNE 15 26 8 14 1013.4 1011.4 0.0
23/11:30am 26.2 24.8 14.6 48 7.1 ENE 15 26 8 14 1013.9 - 0.0
23/11:00am 25.0 24.5 15.0 53 6.1 NE 11 24 6 13 1014.4 - 0.0
23/10:30am 24.6 24.6 15.2 55 5.8 NE 9 15 5 8 1014.8 - 0.0
23/10:00am 23.2 22.9 15.5 62 4.7 N 11 17 6 9 1015.4 - 0.0
23/09:30am 21.8 21.2 14.7 64 4.3 NNE 11 17 6 9 1015.7 - 0.0
23/09:00am 21.6 21.9 14.5 64 4.2 NNE 6 9 3 5 1015.6 1013.7 0.2
23/08:30am 20.8 20.6 14.7 68 3.7 ESE 9 11 5 6 1015.4 - 0.2
23/08:00am 18.8 18.2 14.7 77 2.4 SE 11 15 6 8 1015.2 - 0.2
23/07:30am 17.1 16.0 14.2 83 1.7 SE 13 17 7 9 1015.0 - 0.2
23/07:00am 15.9 15.1 14.1 89 1.0 SE 11 15 6 8 1014.7 - 0.2
23/06:30am 15.4 14.1 13.6 89 1.0 SSE 13 17 7 9 1014.5 - 0.2
23/06:00am 15.3 14.4 13.7 90 0.9 SE 11 15 6 8 1014.3 1012.4 0.2
23/05:30am 16.0 14.9 14.2 89 1.0 SE 13 17 7 9 1013.9 - 0.2
23/05:00am 15.8 14.3 14.3 91 0.9 SSE 15 19 8 10 1013.7 - 0.2
23/04:30am 15.7 15.1 14.6 93 0.6 SE 11 13 6 7 1013.7 - 0.2
23/04:00am 15.4 14.9 14.8 96 0.4 SE 11 13 6 7 1013.7 - 0.2
23/03:30am 14.2 14.0 13.6 96 0.3 WNW 7 9 4 5 1013.9 - 0.0
23/03:00am 14.3 15.3 13.3 94 0.6 CALM 0 0 0 0 1014.0 1012.1 0.0
23/02:30am 15.3 16.8 14.7 96 0.4 CALM 0 0 0 0 1014.2 - 0.0
23/02:00am 14.9 16.1 13.9 94 0.6 CALM 0 0 0 0 1014.3 - 0.0
23/01:30am 15.1 16.3 13.8 92 0.7 CALM 0 0 0 0 1014.4 - 0.0
23/01:00am 15.5 16.8 14.2 92 0.8 CALM 0 0 0 0 1014.7 - 0.0
23/12:30am 16.0 17.5 14.7 92 0.8 CALM 0 0 0 0 1015.0 - 0.0
23/12:00am 16.3 17.9 15.0 92 0.8 CALM 0 0 0 0 1015.0 1013.1 0.0
 
Date/Time
EST
Temp
°C
App
Temp
°C
Dew
Point
°C
Rel
Hum
%
Delta-T
°C
Wind Press
QNH
hPa
Press
MSL
hPa
Rain since
9am
mm
Dir  Spd
km/h
Gust
km/h
Spd
kts
Gust
kts
22/11:30pm 16.3 17.8 14.7 90 0.9 CALM 0 0 0 0 1015.2 - 0.0
22/11:00pm 16.5 18.1 15.0 91 0.9 CALM 0 0 0 0 1015.4 - 0.0
22/10:30pm 17.0 18.4 15.3 90 1.0 WNW 2 9 1 5 1015.4 - 0.0
22/10:00pm 17.1 18.1 15.3 89 1.1 WNW 4 7 2 4 1015.1 - 0.0
22/09:30pm 17.3 17.7 15.3 88 1.2 W 7 9 4 5 1014.9 - 0.0
22/09:00pm 17.7 18.2 15.5 87 1.3 WNW 7 11 4 6 1014.7 1012.8 0.0
22/08:30pm 18.3 20.0 15.2 82 1.9 CALM 0 0 0 0 1014.4 - 0.0
22/08:00pm 19.3 20.5 15.8 80 2.1 NW 4 11 2 6 1014.1 - 0.0
22/07:30pm 19.9 21.3 15.5 76 2.7 N 2 9 1 5 1013.7 - 0.0
22/07:00pm 20.4 20.9 15.6 74 2.9 NNE 7 13 4 7 1013.2 - 0.0
22/06:30pm 21.2 21.9 15.5 70 3.5 N 6 11 3 6 1012.8 - 0.0
22/06:00pm 22.5 22.0 15.8 66 4.1 NNE 13 20 7 11 1012.4 1010.5 0.0
22/05:30pm 23.8 22.8 15.6 60 5.0 NNE 15 24 8 13 1012.0 - 0.0
22/05:00pm 24.8 23.8 15.7 57 5.6 NNE 15 26 8 14 1011.6 - 0.0
22/04:30pm 25.5 24.0 15.2 53 6.3 NNE 17 28 9 15 1011.5 - 0.0
22/04:00pm 25.9 24.3 15.0 51 6.7 NNE 17 26 9 14 1011.4 - 0.0
22/03:30pm 26.2 24.7 15.3 51 6.7 NNE 17 26 9 14 1011.4 - 0.0
22/03:00pm 25.8 24.8 14.6 50 6.8 NE 13 20 7 11 1011.6 1009.6 0.0
22/02:30pm 26.7 25.8 11.2 38 9.0 ESE 7 13 4 7 1011.8 - 0.0
22/02:00pm 27.6 25.9 12.4 39 9.0 ESE 13 20 7 11 1012.1 - 0.0
22/01:30pm 27.5 26.9 12.3 39 9.0 N 7 13 4 7 1012.6 - 0.0
22/01:00pm 25.2 24.5 13.1 47 7.2 E 9 15 5 8 1013.2 - 0.0

Other Formats:

Comma delimited format used in spreadsheet applications
http://www.bom.gov.au/fwo/IDQ60801/IDQ60801.95286.axf

JavaScript Object Notation format (JSON) in row-major order
http://www.bom.gov.au/fwo/IDQ60801/IDQ60801.95286.json